sensor_id;sensor_type;location;lat;lon;timestamp;noise_LAeq;noise_LA_min;noise_LA_max;noise_LA01;noise_LA95
69670;Laerm;66535;52.370;4.832;2023-08-08T00:00:15;38.39;35.73;41.45;;
69670;Laerm;66535;52.370;4.832;2023-08-08T00:00:48;37.35;35.54;39.62;;
69670;Laerm;66535;52.370;4.832;2023-08-08T00:01:19;38.95;35.70;43.28;;
69670;Laerm;66535;52.370;4.832;2023-08-08T00:01:50;40.86;35.74;47.51;;
69670;Laerm;66535;52.370;4.832;2023-08-08T00:02:22;37.82;35.63;40.29;;
69670;Laerm;66535;52.370;4.832;2023-08-08T00:02:54;36.66;34.96;38.18;;
69670;Laerm;66535;52.370;4.832;2023-08-08T00:03:25;40.05;36.06;47.24;;
69670;Laerm;66535;52.370;4.832;2023-08-08T00:03:57;37.66;35.59;44.78;;
69670;Laerm;66535;52.370;4.832;2023-08-08T00:04:28;38.97;35.42;41.92;;
69670;Laerm;66535;52.370;4.832;2023-08-08T00:05:00;39.86;36.98;45.38;;
69670;Laerm;66535;52.370;4.832;2023-08-08T00:05:31;42.78;36.58;51.27;;
69670;Laerm;66535;52.370;4.832;2023-08-08T00:06:03;36.70;34.67;39.11;;
69670;Laerm;66535;52.370;4.832;2023-08-08T00:06:35;36.50;34.77;42.49;;
69670;Laerm;66535;52.370;4.832;2023-08-08T00:07:07;36.50;34.91;40.09;;
69670;Laerm;66535;52.370;4.832;2023-08-08T00:07:40;36.69;34.68;41.54;;
69670;Laerm;66535;52.370;4.832;2023-08-08T00:08:11;36.34;34.45;38.65;;
69670;Laerm;66535;52.370;4.832;2023-08-08T00:08:43;40.18;35.02;47.16;;
69670;Laerm;66535;52.370;4.832;2023-08-08T00:09:15;42.37;35.89;51.58;;
69670;Laerm;66535;52.370;4.832;2023-08-08T00:09:47;39.47;35.08;45.05;;
69670;Laerm;66535;52.370;4.832;2023-08-08T00:10:18;38.84;35.38;44.17;;
69670;Laerm;66535;52.370;4.832;2023-08-08T00:10:50;38.31;35.63;43.16;;
69670;Laerm;66535;52.370;4.832;2023-08-08T00:11:21;37.48;35.16;44.86;;
69670;Laerm;66535;52.370;4.832;2023-08-08T00:11:53;36.36;33.96;45.07;;
69670;Laerm;66535;52.370;4.832;2023-08-08T00:12:24;36.96;34.24;48.18;;
69670;Laerm;66535;52.370;4.832;2023-08-08T00:12:56;36.49;34.31;38.56;;
69670;Laerm;66535;52.370;4.832;2023-08-08T00:13:28;38.75;34.36;43.37;;
69670;Laerm;66535;52.370;4.832;2023-08-08T00:13:59;41.03;38.06;44.09;;
69670;Laerm;66535;52.370;4.832;2023-08-08T00:14:30;43.40;36.66;52.54;;
69670;Laerm;66535;52.370;4.832;2023-08-08T00:15:03;43.39;37.35;53.14;;
69670;Laerm;66535;52.370;4.832;2023-08-08T00:15:34;41.33;37.65;47.34;;
69670;Laerm;66535;52.370;4.832;2023-08-08T00:16:06;44.82;38.55;53.13;;
69670;Laerm;66535;52.370;4.832;2023-08-08T00:16:38;39.79;36.93;44.38;;
69670;Laerm;66535;52.370;4.832;2023-08-08T00:17:10;39.08;36.22;42.66;;
69670;Laerm;66535;52.370;4.832;2023-08-08T00:17:41;38.20;35.30;41.58;;
69670;Laerm;66535;52.370;4.832;2023-08-08T00:18:13;36.43;34.58;43.47;;
69670;Laerm;66535;52.370;4.832;2023-08-08T00:18:45;42.89;34.98;59.34;;
69670;Laerm;66535;52.370;4.832;2023-08-08T00:19:17;39.59;34.81;52.08;;
69670;Laerm;66535;52.370;4.832;2023-08-08T00:19:48;39.09;35.77;42.97;;
69670;Laerm;66535;52.370;4.832;2023-08-08T00:20:19;36.55;34.05;39.08;;
69670;Laerm;66535;52.370;4.832;2023-08-08T00:20:51;38.13;34.45;46.72;;
69670;Laerm;66535;52.370;4.832;2023-08-08T00:21:23;36.87;34.67;38.98;;
69670;Laerm;66535;52.370;4.832;2023-08-08T00:21:54;38.44;35.80;44.48;;
69670;Laerm;66535;52.370;4.832;2023-08-08T00:22:26;42.01;37.46;48.18;;
69670;Laerm;66535;52.370;4.832;2023-08-08T00:22:58;40.42;37.27;45.15;;
69670;Laerm;66535;52.370;4.832;2023-08-08T00:23:30;38.11;35.45;42.63;;
69670;Laerm;66535;52.370;4.832;2023-08-08T00:24:02;42.49;37.16;48.17;;
69670;Laerm;66535;52.370;4.832;2023-08-08T00:24:33;38.19;35.50;41.53;;
69670;Laerm;66535;52.370;4.832;2023-08-08T00:25:05;38.43;36.26;42.43;;
69670;Laerm;66535;52.370;4.832;2023-08-08T00:25:37;41.09;36.98;47.42;;
69670;Laerm;66535;52.370;4.832;2023-08-08T00:26:08;44.31;36.24;56.61;;
69670;Laerm;66535;52.370;4.832;2023-08-08T00:26:40;43.19;37.88;48.18;;
69670;Laerm;66535;52.370;4.832;2023-08-08T00:27:11;39.91;37.73;45.27;;
69670;Laerm;66535;52.370;4.832;2023-08-08T00:27:43;38.73;35.50;42.50;;
69670;Laerm;66535;52.370;4.832;2023-08-08T00:28:15;41.06;35.92;48.22;;
69670;Laerm;66535;52.370;4.832;2023-08-08T00:28:46;44.44;36.40;52.51;;
69670;Laerm;66535;52.370;4.832;2023-08-08T00:29:17;42.24;37.05;51.62;;
69670;Laerm;66535;52.370;4.832;2023-08-08T00:29:50;40.14;35.84;49.38;;
69670;Laerm;66535;52.370;4.832;2023-08-08T00:30:21;39.90;35.53;46.96;;
69670;Laerm;66535;52.370;4.832;2023-08-08T00:30:53;40.01;35.26;46.77;;
69670;Laerm;66535;52.370;4.832;2023-08-08T00:31:25;35.97;34.40;39.72;;
69670;Laerm;66535;52.370;4.832;2023-08-08T00:31:56;35.96;33.99;37.85;;
69670;Laerm;66535;52.370;4.832;2023-08-08T00:32:28;35.80;33.92;38.34;;
69670;Laerm;66535;52.370;4.832;2023-08-08T00:32:59;41.19;35.39;49.35;;
69670;Laerm;66535;52.370;4.832;2023-08-08T00:33:31;40.00;36.11;48.76;;
69670;Laerm;66535;52.370;4.832;2023-08-08T00:34:02;40.96;36.89;61.43;;
69670;Laerm;66535;52.370;4.832;2023-08-08T00:34:34;41.83;36.71;51.02;;
69670;Laerm;66535;52.370;4.832;2023-08-08T00:35:06;37.80;34.87;41.77;;
69670;Laerm;66535;52.370;4.832;2023-08-08T00:35:38;35.45;33.63;37.52;;
69670;Laerm;66535;52.370;4.832;2023-08-08T00:36:09;36.81;33.88;46.10;;
69670;Laerm;66535;52.370;4.832;2023-08-08T00:36:40;35.92;33.86;39.52;;
69670;Laerm;66535;52.370;4.832;2023-08-08T00:37:12;37.35;34.40;42.52;;
69670;Laerm;66535;52.370;4.832;2023-08-08T00:37:44;36.85;34.47;44.78;;
69670;Laerm;66535;52.370;4.832;2023-08-08T00:38:17;37.30;34.81;40.34;;
69670;Laerm;66535;52.370;4.832;2023-08-08T00:38:49;40.54;35.13;45.51;;
69670;Laerm;66535;52.370;4.832;2023-08-08T00:39:20;38.90;36.03;42.89;;
69670;Laerm;66535;52.370;4.832;2023-08-08T00:39:53;37.44;35.09;40.42;;
69670;Laerm;66535;52.370;4.832;2023-08-08T00:40:24;37.52;35.64;39.52;;
69670;Laerm;66535;52.370;4.832;2023-08-08T00:40:55;41.11;36.02;49.96;;
69670;Laerm;66535;52.370;4.832;2023-08-08T00:41:27;36.31;33.94;39.03;;
69670;Laerm;66535;52.370;4.832;2023-08-08T00:41:59;37.83;34.65;43.29;;
69670;Laerm;66535;52.370;4.832;2023-08-08T00:42:30;37.95;35.21;42.05;;
69670;Laerm;66535;52.370;4.832;2023-08-08T00:43:01;38.11;34.76;45.95;;
69670;Laerm;66535;52.370;4.832;2023-08-08T00:43:33;39.21;35.42;43.99;;
69670;Laerm;66535;52.370;4.832;2023-08-08T00:44:05;42.18;34.71;50.40;;
69670;Laerm;66535;52.370;4.832;2023-08-08T00:44:36;39.31;36.21;47.15;;
69670;Laerm;66535;52.370;4.832;2023-08-08T00:45:08;37.96;35.46;41.27;;
69670;Laerm;66535;52.370;4.832;2023-08-08T00:45:42;36.85;34.88;39.29;;
69670;Laerm;66535;52.370;4.832;2023-08-08T00:46:13;40.10;36.85;44.83;;
69670;Laerm;66535;52.370;4.832;2023-08-08T00:46:45;37.73;35.07;39.79;;
69670;Laerm;66535;52.370;4.832;2023-08-08T00:47:16;38.40;36.01;41.99;;
69670;Laerm;66535;52.370;4.832;2023-08-08T00:47:49;38.25;36.45;41.07;;
69670;Laerm;66535;52.370;4.832;2023-08-08T00:48:20;42.04;37.55;48.80;;
69670;Laerm;66535;52.370;4.832;2023-08-08T00:48:52;39.23;35.76;45.25;;
69670;Laerm;66535;52.370;4.832;2023-08-08T00:49:24;50.58;35.97;69.19;;
69670;Laerm;66535;52.370;4.832;2023-08-08T00:49:55;40.14;35.14;54.60;;
69670;Laerm;66535;52.370;4.832;2023-08-08T00:50:27;45.07;36.88;55.62;;
69670;Laerm;66535;52.370;4.832;2023-08-08T00:50:59;39.27;36.64;45.71;;
69670;Laerm;66535;52.370;4.832;2023-08-08T00:51:31;37.22;35.57;40.47;;
69670;Laerm;66535;52.370;4.832;2023-08-08T00:52:04;39.51;36.25;43.25;;
69670;Laerm;66535;52.370;4.832;2023-08-08T00:52:37;38.15;36.08;40.35;;
69670;Laerm;66535;52.370;4.832;2023-08-08T00:53:09;38.61;35.85;41.13;;
69670;Laerm;66535;52.370;4.832;2023-08-08T00:53:43;41.36;36.25;47.48;;
69670;Laerm;66535;52.370;4.832;2023-08-08T00:54:15;40.21;37.74;43.52;;
69670;Laerm;66535;52.370;4.832;2023-08-08T00:54:46;42.60;37.45;48.84;;
69670;Laerm;66535;52.370;4.832;2023-08-08T00:55:18;38.50;35.89;40.77;;
69670;Laerm;66535;52.370;4.832;2023-08-08T00:55:50;37.86;35.85;40.66;;
69670;Laerm;66535;52.370;4.832;2023-08-08T00:56:22;38.64;36.14;40.91;;
69670;Laerm;66535;52.370;4.832;2023-08-08T00:56:54;41.73;36.72;49.00;;
69670;Laerm;66535;52.370;4.832;2023-08-08T00:57:25;43.16;37.54;52.60;;
69670;Laerm;66535;52.370;4.832;2023-08-08T00:57:58;38.38;35.98;44.67;;
69670;Laerm;66535;52.370;4.832;2023-08-08T00:58:30;38.59;36.48;44.57;;
69670;Laerm;66535;52.370;4.832;2023-08-08T00:59:01;39.41;36.17;43.46;;
69670;Laerm;66535;52.370;4.832;2023-08-08T00:59:33;38.15;35.87;40.27;;
69670;Laerm;66535;52.370;4.832;2023-08-08T01:00:06;40.96;37.41;45.10;;
69670;Laerm;66535;52.370;4.832;2023-08-08T01:00:38;39.53;37.02;43.91;;
69670;Laerm;66535;52.370;4.832;2023-08-08T01:01:09;41.35;38.31;46.84;;
69670;Laerm;66535;52.370;4.832;2023-08-08T01:01:40;45.13;38.65;53.99;;
69670;Laerm;66535;52.370;4.832;2023-08-08T01:02:13;44.92;38.29;51.77;;
69670;Laerm;66535;52.370;4.832;2023-08-08T01:02:44;40.66;37.37;44.12;;
69670;Laerm;66535;52.370;4.832;2023-08-08T01:03:15;41.23;39.21;44.41;;
69670;Laerm;66535;52.370;4.832;2023-08-08T01:03:46;41.96;38.34;44.73;;
69670;Laerm;66535;52.370;4.832;2023-08-08T01:04:19;41.41;38.53;44.63;;
69670;Laerm;66535;52.370;4.832;2023-08-08T01:04:51;42.45;39.05;45.57;;
69670;Laerm;66535;52.370;4.832;2023-08-08T01:05:22;42.32;39.08;45.26;;
69670;Laerm;66535;52.370;4.832;2023-08-08T01:05:58;40.49;37.84;42.75;;
69670;Laerm;66535;52.370;4.832;2023-08-08T01:06:36;42.21;38.06;47.86;;
69670;Laerm;66535;52.370;4.832;2023-08-08T01:07:12;40.43;36.99;44.56;;
69670;Laerm;66535;52.370;4.832;2023-08-08T01:07:51;40.54;36.23;47.91;;
69670;Laerm;66535;52.370;4.832;2023-08-08T01:08:25;38.74;36.11;41.46;;
69670;Laerm;66535;52.370;4.832;2023-08-08T01:09:03;40.10;36.53;42.93;;
69670;Laerm;66535;52.370;4.832;2023-08-08T01:09:37;42.78;38.94;47.94;;
69670;Laerm;66535;52.370;4.832;2023-08-08T01:10:11;41.09;37.66;44.77;;
69670;Laerm;66535;52.370;4.832;2023-08-08T01:10:45;39.23;37.35;40.91;;
69670;Laerm;66535;52.370;4.832;2023-08-08T01:11:16;41.90;37.68;45.80;;
69670;Laerm;66535;52.370;4.832;2023-08-08T01:11:48;41.88;37.27;46.37;;
69670;Laerm;66535;52.370;4.832;2023-08-08T01:12:22;47.87;44.73;50.24;;
69670;Laerm;66535;52.370;4.832;2023-08-08T01:12:58;49.24;44.00;53.17;;
69670;Laerm;66535;52.370;4.832;2023-08-08T01:13:30;47.13;43.82;50.33;;
69670;Laerm;66535;52.370;4.832;2023-08-08T01:14:03;44.97;42.29;47.82;;
69670;Laerm;66535;52.370;4.832;2023-08-08T01:14:37;42.85;39.62;45.89;;
69670;Laerm;66535;52.370;4.832;2023-08-08T01:15:10;42.74;40.29;45.19;;
69670;Laerm;66535;52.370;4.832;2023-08-08T01:15:42;44.72;40.54;48.38;;
69670;Laerm;66535;52.370;4.832;2023-08-08T01:16:14;44.53;39.71;47.72;;
69670;Laerm;66535;52.370;4.832;2023-08-08T01:16:47;43.76;38.50;49.18;;
69670;Laerm;66535;52.370;4.832;2023-08-08T01:17:18;46.09;43.21;48.94;;
69670;Laerm;66535;52.370;4.832;2023-08-08T01:17:51;44.86;41.58;47.74;;
69670;Laerm;66535;52.370;4.832;2023-08-08T01:18:24;43.73;40.76;46.74;;
69670;Laerm;66535;52.370;4.832;2023-08-08T01:18:56;44.19;41.20;50.73;;
69670;Laerm;66535;52.370;4.832;2023-08-08T01:19:29;40.97;37.76;43.94;;
69670;Laerm;66535;52.370;4.832;2023-08-08T01:20:04;43.55;38.03;49.34;;
69670;Laerm;66535;52.370;4.832;2023-08-08T01:20:36;45.86;41.54;49.63;;
69670;Laerm;66535;52.370;4.832;2023-08-08T01:21:08;47.43;44.81;50.50;;
69670;Laerm;66535;52.370;4.832;2023-08-08T01:21:41;46.96;44.16;49.56;;
69670;Laerm;66535;52.370;4.832;2023-08-08T01:22:24;46.74;42.71;51.60;;
69670;Laerm;66535;52.370;4.832;2023-08-08T01:23:01;49.30;46.31;52.93;;
69670;Laerm;66535;52.370;4.832;2023-08-08T01:23:41;47.21;42.71;50.53;;
69670;Laerm;66535;52.370;4.832;2023-08-08T01:24:18;45.59;41.52;49.59;;
69670;Laerm;66535;52.370;4.832;2023-08-08T01:24:49;46.05;42.49;50.27;;
69670;Laerm;66535;52.370;4.832;2023-08-08T01:25:21;44.10;40.92;47.25;;
69670;Laerm;66535;52.370;4.832;2023-08-08T01:25:53;45.89;43.53;48.47;;
69670;Laerm;66535;52.370;4.832;2023-08-08T01:26:25;47.88;44.53;50.43;;
69670;Laerm;66535;52.370;4.832;2023-08-08T01:26:57;49.86;46.43;53.07;;
69670;Laerm;66535;52.370;4.832;2023-08-08T01:27:29;47.79;43.24;51.84;;
69670;Laerm;66535;52.370;4.832;2023-08-08T01:28:03;46.25;42.86;53.54;;
69670;Laerm;66535;52.370;4.832;2023-08-08T01:28:35;44.64;41.81;47.12;;
69670;Laerm;66535;52.370;4.832;2023-08-08T01:29:06;45.17;41.45;49.71;;
69670;Laerm;66535;52.370;4.832;2023-08-08T01:29:37;48.19;44.52;50.67;;
69670;Laerm;66535;52.370;4.832;2023-08-08T01:30:11;45.53;42.88;49.50;;
69670;Laerm;66535;52.370;4.832;2023-08-08T01:30:43;46.62;42.56;49.91;;
69670;Laerm;66535;52.370;4.832;2023-08-08T01:31:14;46.49;42.94;50.35;;
69670;Laerm;66535;52.370;4.832;2023-08-08T01:31:46;47.76;43.93;50.80;;
69670;Laerm;66535;52.370;4.832;2023-08-08T01:32:18;46.72;42.78;50.59;;
69670;Laerm;66535;52.370;4.832;2023-08-08T01:32:49;44.50;41.68;48.16;;
69670;Laerm;66535;52.370;4.832;2023-08-08T01:33:20;45.37;42.99;48.59;;
69670;Laerm;66535;52.370;4.832;2023-08-08T01:33:53;45.55;41.85;48.77;;
69670;Laerm;66535;52.370;4.832;2023-08-08T01:34:24;47.50;42.47;53.60;;
69670;Laerm;66535;52.370;4.832;2023-08-08T01:34:56;45.66;42.78;49.06;;
69670;Laerm;66535;52.370;4.832;2023-08-08T01:35:29;45.80;43.13;48.28;;
69670;Laerm;66535;52.370;4.832;2023-08-08T01:36:04;47.02;42.73;50.45;;
69670;Laerm;66535;52.370;4.832;2023-08-08T01:36:41;45.17;42.01;48.86;;
69670;Laerm;66535;52.370;4.832;2023-08-08T01:37:17;45.36;42.02;48.26;;
69670;Laerm;66535;52.370;4.832;2023-08-08T01:37:52;45.50;41.71;48.35;;
69670;Laerm;66535;52.370;4.832;2023-08-08T01:38:28;44.71;41.72;47.31;;
69670;Laerm;66535;52.370;4.832;2023-08-08T01:39:02;42.33;38.71;47.80;;
69670;Laerm;66535;52.370;4.832;2023-08-08T01:39:36;45.93;43.31;48.60;;
69670;Laerm;66535;52.370;4.832;2023-08-08T01:40:09;45.67;41.50;48.74;;
69670;Laerm;66535;52.370;4.832;2023-08-08T01:40:42;43.76;39.71;47.12;;
69670;Laerm;66535;52.370;4.832;2023-08-08T01:41:16;44.86;41.35;48.28;;
69670;Laerm;66535;52.370;4.832;2023-08-08T01:41:47;44.94;41.87;48.45;;
69670;Laerm;66535;52.370;4.832;2023-08-08T01:42:19;44.66;41.57;48.22;;
69670;Laerm;66535;52.370;4.832;2023-08-08T01:42:54;43.38;40.04;46.17;;
69670;Laerm;66535;52.370;4.832;2023-08-08T01:43:26;43.77;40.95;47.69;;
69670;Laerm;66535;52.370;4.832;2023-08-08T01:43:58;42.37;39.06;46.81;;
69670;Laerm;66535;52.370;4.832;2023-08-08T01:44:30;42.08;38.37;46.09;;
69670;Laerm;66535;52.370;4.832;2023-08-08T01:45:04;42.36;38.71;45.53;;
69670;Laerm;66535;52.370;4.832;2023-08-08T01:45:36;43.25;39.61;47.01;;
69670;Laerm;66535;52.370;4.832;2023-08-08T01:46:07;44.59;40.65;48.57;;
69670;Laerm;66535;52.370;4.832;2023-08-08T01:46:40;42.69;39.07;49.43;;
69670;Laerm;66535;52.370;4.832;2023-08-08T01:47:11;42.51;38.75;45.78;;
69670;Laerm;66535;52.370;4.832;2023-08-08T01:47:43;43.00;40.54;45.01;;
69670;Laerm;66535;52.370;4.832;2023-08-08T01:48:20;41.08;38.02;44.32;;
69670;Laerm;66535;52.370;4.832;2023-08-08T01:48:52;40.84;37.35;44.10;;
69670;Laerm;66535;52.370;4.832;2023-08-08T01:49:23;42.69;40.51;45.10;;
69670;Laerm;66535;52.370;4.832;2023-08-08T01:49:55;44.83;40.64;52.10;;
69670;Laerm;66535;52.370;4.832;2023-08-08T01:50:26;49.09;40.32;58.93;;
69670;Laerm;66535;52.370;4.832;2023-08-08T01:50:59;42.00;39.24;45.10;;
69670;Laerm;66535;52.370;4.832;2023-08-08T01:51:30;42.85;39.86;48.99;;
69670;Laerm;66535;52.370;4.832;2023-08-08T01:52:02;41.93;39.40;46.90;;
69670;Laerm;66535;52.370;4.832;2023-08-08T01:52:33;39.78;36.96;41.89;;
69670;Laerm;66535;52.370;4.832;2023-08-08T01:53:05;41.29;37.93;50.95;;
69670;Laerm;66535;52.370;4.832;2023-08-08T01:53:37;40.62;37.96;43.52;;
69670;Laerm;66535;52.370;4.832;2023-08-08T01:54:08;42.67;38.95;48.71;;
69670;Laerm;66535;52.370;4.832;2023-08-08T01:54:41;39.83;37.33;43.32;;
69670;Laerm;66535;52.370;4.832;2023-08-08T01:55:13;41.33;38.55;45.46;;
69670;Laerm;66535;52.370;4.832;2023-08-08T01:55:45;40.58;37.98;42.95;;
69670;Laerm;66535;52.370;4.832;2023-08-08T01:56:16;39.95;37.39;43.43;;
69670;Laerm;66535;52.370;4.832;2023-08-08T01:56:47;40.12;37.36;45.58;;
69670;Laerm;66535;52.370;4.832;2023-08-08T01:57:20;42.81;37.77;50.79;;
69670;Laerm;66535;52.370;4.832;2023-08-08T01:57:51;41.78;39.30;44.81;;
69670;Laerm;66535;52.370;4.832;2023-08-08T01:58:22;39.66;37.21;47.03;;
69670;Laerm;66535;52.370;4.832;2023-08-08T01:58:54;40.71;37.93;45.19;;
69670;Laerm;66535;52.370;4.832;2023-08-08T01:59:26;39.58;36.94;42.44;;
69670;Laerm;66535;52.370;4.832;2023-08-08T01:59:57;40.49;37.57;43.78;;
69670;Laerm;66535;52.370;4.832;2023-08-08T02:00:28;40.77;37.60;43.26;;
69670;Laerm;66535;52.370;4.832;2023-08-08T02:01:00;39.65;37.04;42.18;;
69670;Laerm;66535;52.370;4.832;2023-08-08T02:01:32;41.88;36.87;45.97;;
69670;Laerm;66535;52.370;4.832;2023-08-08T02:02:03;43.54;39.97;48.59;;
69670;Laerm;66535;52.370;4.832;2023-08-08T02:02:35;45.44;41.72;49.58;;
69670;Laerm;66535;52.370;4.832;2023-08-08T02:03:06;41.42;38.18;46.53;;
69670;Laerm;66535;52.370;4.832;2023-08-08T02:03:39;40.37;37.64;42.96;;
69670;Laerm;66535;52.370;4.832;2023-08-08T02:04:10;41.62;37.39;44.55;;
69670;Laerm;66535;52.370;4.832;2023-08-08T02:04:41;40.01;36.31;45.49;;
69670;Laerm;66535;52.370;4.832;2023-08-08T02:05:13;38.51;35.51;45.64;;
69670;Laerm;66535;52.370;4.832;2023-08-08T02:05:45;40.27;36.87;42.95;;
69670;Laerm;66535;52.370;4.832;2023-08-08T02:06:16;42.59;38.43;48.85;;
69670;Laerm;66535;52.370;4.832;2023-08-08T02:06:48;41.26;37.96;46.91;;
69670;Laerm;66535;52.370;4.832;2023-08-08T02:07:19;40.92;37.09;44.39;;
69670;Laerm;66535;52.370;4.832;2023-08-08T02:07:51;39.51;37.16;41.98;;
69670;Laerm;66535;52.370;4.832;2023-08-08T02:08:23;39.20;35.41;52.24;;
69670;Laerm;66535;52.370;4.832;2023-08-08T02:08:54;40.35;35.26;45.07;;
69670;Laerm;66535;52.370;4.832;2023-08-08T02:09:26;39.85;36.31;43.65;;
69670;Laerm;66535;52.370;4.832;2023-08-08T02:09:59;44.57;37.40;66.61;;
69670;Laerm;66535;52.370;4.832;2023-08-08T02:10:31;40.66;37.32;51.87;;
69670;Laerm;66535;52.370;4.832;2023-08-08T02:11:03;39.98;37.24;46.35;;
69670;Laerm;66535;52.370;4.832;2023-08-08T02:11:34;38.44;36.09;41.11;;
69670;Laerm;66535;52.370;4.832;2023-08-08T02:12:06;39.78;36.73;46.01;;
69670;Laerm;66535;52.370;4.832;2023-08-08T02:12:37;40.94;37.40;48.98;;
69670;Laerm;66535;52.370;4.832;2023-08-08T02:13:10;38.56;36.38;40.52;;
69670;Laerm;66535;52.370;4.832;2023-08-08T02:13:41;38.19;35.64;42.00;;
69670;Laerm;66535;52.370;4.832;2023-08-08T02:14:12;38.78;36.16;42.52;;
69670;Laerm;66535;52.370;4.832;2023-08-08T02:14:44;40.13;37.52;44.51;;
69670;Laerm;66535;52.370;4.832;2023-08-08T02:15:16;42.96;39.13;50.21;;
69670;Laerm;66535;52.370;4.832;2023-08-08T02:15:47;39.58;36.28;44.35;;
69670;Laerm;66535;52.370;4.832;2023-08-08T02:16:19;39.18;36.64;41.69;;
69670;Laerm;66535;52.370;4.832;2023-08-08T02:16:50;41.27;38.94;44.27;;
69670;Laerm;66535;52.370;4.832;2023-08-08T02:17:22;42.04;37.70;47.44;;
69670;Laerm;66535;52.370;4.832;2023-08-08T02:17:54;38.87;36.71;41.79;;
69670;Laerm;66535;52.370;4.832;2023-08-08T02:18:25;38.50;36.67;45.24;;
69670;Laerm;66535;52.370;4.832;2023-08-08T02:18:58;42.25;36.61;56.24;;
69670;Laerm;66535;52.370;4.832;2023-08-08T02:19:29;42.18;36.83;55.27;;
69670;Laerm;66535;52.370;4.832;2023-08-08T02:20:01;38.02;36.35;40.02;;
69670;Laerm;66535;52.370;4.832;2023-08-08T02:20:32;38.03;35.37;41.11;;
69670;Laerm;66535;52.370;4.832;2023-08-08T02:21:04;37.96;36.13;39.39;;
69670;Laerm;66535;52.370;4.832;2023-08-08T02:21:36;38.99;36.58;41.59;;
69670;Laerm;66535;52.370;4.832;2023-08-08T02:22:07;38.88;36.75;41.29;;
69670;Laerm;66535;52.370;4.832;2023-08-08T02:22:39;42.30;36.69;48.54;;
69670;Laerm;66535;52.370;4.832;2023-08-08T02:23:11;39.85;37.06;45.31;;
69670;Laerm;66535;52.370;4.832;2023-08-08T02:23:42;39.41;36.77;43.76;;
69670;Laerm;66535;52.370;4.832;2023-08-08T02:24:13;41.26;37.49;47.50;;
69670;Laerm;66535;52.370;4.832;2023-08-08T02:24:46;41.51;37.04;45.31;;
69670;Laerm;66535;52.370;4.832;2023-08-08T02:25:18;42.90;40.80;45.53;;
69670;Laerm;66535;52.370;4.832;2023-08-08T02:25:50;43.18;40.66;46.09;;
69670;Laerm;66535;52.370;4.832;2023-08-08T02:26:21;41.25;38.85;43.64;;
69670;Laerm;66535;52.370;4.832;2023-08-08T02:26:53;45.39;40.75;53.22;;
69670;Laerm;66535;52.370;4.832;2023-08-08T02:27:24;48.84;42.21;56.60;;
69670;Laerm;66535;52.370;4.832;2023-08-08T02:27:56;46.13;41.92;51.91;;
69670;Laerm;66535;52.370;4.832;2023-08-08T02:28:27;43.45;38.38;47.61;;
69670;Laerm;66535;52.370;4.832;2023-08-08T02:28:59;41.82;38.87;45.00;;
69670;Laerm;66535;52.370;4.832;2023-08-08T02:29:31;41.18;38.81;43.16;;
69670;Laerm;66535;52.370;4.832;2023-08-08T02:30:02;39.76;37.87;42.25;;
69670;Laerm;66535;52.370;4.832;2023-08-08T02:30:34;42.42;38.07;44.88;;
69670;Laerm;66535;52.370;4.832;2023-08-08T02:31:06;42.28;38.61;46.17;;
69670;Laerm;66535;52.370;4.832;2023-08-08T02:31:37;42.50;38.03;48.75;;
69670;Laerm;66535;52.370;4.832;2023-08-08T02:32:09;41.67;38.91;46.54;;
69670;Laerm;66535;52.370;4.832;2023-08-08T02:32:40;41.48;38.88;44.01;;
69670;Laerm;66535;52.370;4.832;2023-08-08T02:33:13;40.96;38.32;43.44;;
69670;Laerm;66535;52.370;4.832;2023-08-08T02:33:44;42.91;39.57;45.38;;
69670;Laerm;66535;52.370;4.832;2023-08-08T02:34:15;41.38;38.56;43.91;;
69670;Laerm;66535;52.370;4.832;2023-08-08T02:34:47;41.97;38.13;48.58;;
69670;Laerm;66535;52.370;4.832;2023-08-08T02:35:19;42.30;39.54;46.67;;
69670;Laerm;66535;52.370;4.832;2023-08-08T02:35:50;42.57;39.39;45.23;;
69670;Laerm;66535;52.370;4.832;2023-08-08T02:36:21;42.69;39.81;45.37;;
69670;Laerm;66535;52.370;4.832;2023-08-08T02:36:54;42.90;39.52;46.91;;
69670;Laerm;66535;52.370;4.832;2023-08-08T02:37:25;40.74;38.28;43.92;;
69670;Laerm;66535;52.370;4.832;2023-08-08T02:37:56;38.58;35.20;43.19;;
69670;Laerm;66535;52.370;4.832;2023-08-08T02:38:28;42.23;36.90;46.94;;
69670;Laerm;66535;52.370;4.832;2023-08-08T02:39:00;41.89;38.65;45.95;;
69670;Laerm;66535;52.370;4.832;2023-08-08T02:39:31;41.75;39.67;44.43;;
69670;Laerm;66535;52.370;4.832;2023-08-08T02:40:03;44.45;41.80;48.74;;
69670;Laerm;66535;52.370;4.832;2023-08-08T02:40:37;44.40;41.00;48.38;;
69670;Laerm;66535;52.370;4.832;2023-08-08T02:41:10;44.94;38.40;55.65;;
69670;Laerm;66535;52.370;4.832;2023-08-08T02:41:41;41.42;38.98;44.15;;
69670;Laerm;66535;52.370;4.832;2023-08-08T02:42:13;43.40;39.48;47.13;;
69670;Laerm;66535;52.370;4.832;2023-08-08T02:42:46;44.18;41.10;48.11;;
69670;Laerm;66535;52.370;4.832;2023-08-08T02:43:17;44.44;41.79;47.34;;
69670;Laerm;66535;52.370;4.832;2023-08-08T02:43:49;41.81;38.69;44.95;;
69670;Laerm;66535;52.370;4.832;2023-08-08T02:44:20;44.22;39.39;47.49;;
69670;Laerm;66535;52.370;4.832;2023-08-08T02:44:53;44.54;40.20;48.61;;
69670;Laerm;66535;52.370;4.832;2023-08-08T02:45:24;45.10;40.13;51.42;;
69670;Laerm;66535;52.370;4.832;2023-08-08T02:45:56;42.95;39.35;48.94;;
69670;Laerm;66535;52.370;4.832;2023-08-08T02:46:27;42.82;40.44;46.92;;
69670;Laerm;66535;52.370;4.832;2023-08-08T02:46:59;44.48;40.54;48.74;;
69670;Laerm;66535;52.370;4.832;2023-08-08T02:47:31;43.30;41.10;47.03;;
69670;Laerm;66535;52.370;4.832;2023-08-08T02:48:02;44.84;41.44;47.50;;
69670;Laerm;66535;52.370;4.832;2023-08-08T02:48:34;45.83;42.27;48.61;;
69670;Laerm;66535;52.370;4.832;2023-08-08T02:49:06;44.64;40.83;48.28;;
69670;Laerm;66535;52.370;4.832;2023-08-08T02:49:37;44.96;40.02;50.08;;
69670;Laerm;66535;52.370;4.832;2023-08-08T02:50:09;42.13;39.07;49.81;;
69670;Laerm;66535;52.370;4.832;2023-08-08T02:50:40;42.23;39.19;44.33;;
69670;Laerm;66535;52.370;4.832;2023-08-08T02:51:13;43.64;39.64;53.02;;
69670;Laerm;66535;52.370;4.832;2023-08-08T02:51:44;44.95;42.55;47.98;;
69670;Laerm;66535;52.370;4.832;2023-08-08T02:52:15;43.20;39.33;46.91;;
69670;Laerm;66535;52.370;4.832;2023-08-08T02:52:46;44.34;40.05;49.14;;
69670;Laerm;66535;52.370;4.832;2023-08-08T02:53:19;45.01;40.41;49.14;;
69670;Laerm;66535;52.370;4.832;2023-08-08T02:53:50;45.69;39.79;49.17;;
69670;Laerm;66535;52.370;4.832;2023-08-08T02:54:21;44.62;40.61;47.35;;
69670;Laerm;66535;52.370;4.832;2023-08-08T02:54:52;43.89;40.81;46.57;;
69670;Laerm;66535;52.370;4.832;2023-08-08T02:55:25;44.94;39.85;50.06;;
69670;Laerm;66535;52.370;4.832;2023-08-08T02:55:57;44.11;41.46;47.61;;
69670;Laerm;66535;52.370;4.832;2023-08-08T02:56:29;44.91;40.90;51.78;;
69670;Laerm;66535;52.370;4.832;2023-08-08T02:57:01;42.36;39.92;45.35;;
69670;Laerm;66535;52.370;4.832;2023-08-08T02:57:32;44.49;41.21;47.57;;
69670;Laerm;66535;52.370;4.832;2023-08-08T02:58:04;46.31;42.93;50.09;;
69670;Laerm;66535;52.370;4.832;2023-08-08T02:58:35;47.24;41.38;50.96;;
69670;Laerm;66535;52.370;4.832;2023-08-08T02:59:07;47.51;44.05;49.97;;
69670;Laerm;66535;52.370;4.832;2023-08-08T02:59:39;46.79;43.57;53.65;;